sensor_id;sensor_type;location;lat;lon;timestamp;P1;durP1;ratioP1;P2;durP2;ratioP2
47659;SDS011;33403;43.608;1.458;2022-12-18T00:00:47;22.13;;;13.93;;
47659;SDS011;33403;43.608;1.458;2022-12-18T00:03:14;50.57;;;32.27;;
47659;SDS011;33403;43.608;1.458;2022-12-18T00:05:47;23.00;;;14.87;;
47659;SDS011;33403;43.608;1.458;2022-12-18T00:08:13;18.63;;;12.37;;
47659;SDS011;33403;43.608;1.458;2022-12-18T00:10:39;24.53;;;16.30;;
47659;SDS011;33403;43.608;1.458;2022-12-18T00:13:05;22.40;;;14.90;;
47659;SDS011;33403;43.608;1.458;2022-12-18T00:15:33;24.77;;;15.83;;
47659;SDS011;33403;43.608;1.458;2022-12-18T00:17:59;28.07;;;18.47;;
47659;SDS011;33403;43.608;1.458;2022-12-18T00:20:25;60.07;;;34.63;;
47659;SDS011;33403;43.608;1.458;2022-12-18T00:22:52;25.97;;;16.90;;
47659;SDS011;33403;43.608;1.458;2022-12-18T00:25:18;21.97;;;15.13;;
47659;SDS011;33403;43.608;1.458;2022-12-18T00:27:44;24.43;;;15.50;;
47659;SDS011;33403;43.608;1.458;2022-12-18T00:30:10;23.40;;;15.03;;
47659;SDS011;33403;43.608;1.458;2022-12-18T00:32:36;23.37;;;15.27;;
47659;SDS011;33403;43.608;1.458;2022-12-18T00:35:03;22.93;;;15.67;;
47659;SDS011;33403;43.608;1.458;2022-12-18T00:37:29;18.67;;;12.73;;
47659;SDS011;33403;43.608;1.458;2022-12-18T00:39:55;18.17;;;12.17;;
47659;SDS011;33403;43.608;1.458;2022-12-18T00:42:21;16.97;;;11.53;;
47659;SDS011;33403;43.608;1.458;2022-12-18T00:45:06;18.43;;;12.20;;
47659;SDS011;33403;43.608;1.458;2022-12-18T00:47:32;23.03;;;15.70;;
47659;SDS011;33403;43.608;1.458;2022-12-18T00:49:58;22.83;;;15.20;;
47659;SDS011;33403;43.608;1.458;2022-12-18T00:52:24;31.63;;;17.13;;
47659;SDS011;33403;43.608;1.458;2022-12-18T00:54:50;19.53;;;13.07;;
47659;SDS011;33403;43.608;1.458;2022-12-18T00:57:16;17.00;;;12.17;;
47659;SDS011;33403;43.608;1.458;2022-12-18T00:59:42;16.87;;;11.73;;
47659;SDS011;33403;43.608;1.458;2022-12-18T01:02:08;19.03;;;12.57;;
47659;SDS011;33403;43.608;1.458;2022-12-18T01:04:34;21.87;;;13.10;;
47659;SDS011;33403;43.608;1.458;2022-12-18T01:07:00;20.93;;;13.63;;
47659;SDS011;33403;43.608;1.458;2022-12-18T01:09:26;19.77;;;12.80;;
47659;SDS011;33403;43.608;1.458;2022-12-18T01:11:52;22.53;;;13.70;;
47659;SDS011;33403;43.608;1.458;2022-12-18T01:14:18;26.43;;;14.97;;
47659;SDS011;33403;43.608;1.458;2022-12-18T01:16:44;29.93;;;17.50;;
47659;SDS011;33403;43.608;1.458;2022-12-18T01:19:10;22.37;;;14.07;;
47659;SDS011;33403;43.608;1.458;2022-12-18T01:21:36;19.93;;;12.03;;
47659;SDS011;33403;43.608;1.458;2022-12-18T01:24:03;22.83;;;13.63;;
47659;SDS011;33403;43.608;1.458;2022-12-18T01:26:29;18.43;;;12.70;;
47659;SDS011;33403;43.608;1.458;2022-12-18T01:28:55;52.13;;;29.57;;
47659;SDS011;33403;43.608;1.458;2022-12-18T01:31:28;27.60;;;17.73;;
47659;SDS011;33403;43.608;1.458;2022-12-18T01:33:55;27.53;;;17.87;;
47659;SDS011;33403;43.608;1.458;2022-12-18T01:36:25;29.90;;;18.93;;
47659;SDS011;33403;43.608;1.458;2022-12-18T01:38:52;27.90;;;16.60;;
47659;SDS011;33403;43.608;1.458;2022-12-18T01:41:28;28.70;;;17.30;;
47659;SDS011;33403;43.608;1.458;2022-12-18T01:47:01;25.20;;;15.27;;
47659;SDS011;33403;43.608;1.458;2022-12-18T01:49:27;39.13;;;20.07;;
47659;SDS011;33403;43.608;1.458;2022-12-18T01:51:54;58.70;;;27.10;;
47659;SDS011;33403;43.608;1.458;2022-12-18T01:54:20;57.27;;;27.13;;
47659;SDS011;33403;43.608;1.458;2022-12-18T01:56:46;71.17;;;34.73;;
47659;SDS011;33403;43.608;1.458;2022-12-18T01:59:12;28.40;;;17.30;;
47659;SDS011;33403;43.608;1.458;2022-12-18T02:01:38;28.97;;;16.80;;
47659;SDS011;33403;43.608;1.458;2022-12-18T02:06:46;23.17;;;14.67;;
47659;SDS011;33403;43.608;1.458;2022-12-18T02:09:20;22.83;;;14.07;;
47659;SDS011;33403;43.608;1.458;2022-12-18T02:14:38;38.73;;;20.23;;
47659;SDS011;33403;43.608;1.458;2022-12-18T02:17:13;27.50;;;16.67;;
47659;SDS011;33403;43.608;1.458;2022-12-18T02:24:40;26.37;;;16.13;;
47659;SDS011;33403;43.608;1.458;2022-12-18T02:27:09;22.73;;;14.20;;
47659;SDS011;33403;43.608;1.458;2022-12-18T02:29:44;25.80;;;14.00;;
47659;SDS011;33403;43.608;1.458;2022-12-18T02:32:16;23.50;;;14.20;;
47659;SDS011;33403;43.608;1.458;2022-12-18T02:34:43;24.00;;;14.63;;
47659;SDS011;33403;43.608;1.458;2022-12-18T02:37:12;23.03;;;14.53;;
47659;SDS011;33403;43.608;1.458;2022-12-18T02:39:39;20.37;;;13.30;;
47659;SDS011;33403;43.608;1.458;2022-12-18T02:42:06;20.70;;;13.67;;
47659;SDS011;33403;43.608;1.458;2022-12-18T02:44:41;44.77;;;22.13;;
47659;SDS011;33403;43.608;1.458;2022-12-18T02:47:09;78.43;;;34.27;;
47659;SDS011;33403;43.608;1.458;2022-12-18T02:49:40;43.33;;;23.10;;
47659;SDS011;33403;43.608;1.458;2022-12-18T02:54:57;27.03;;;16.07;;
47659;SDS011;33403;43.608;1.458;2022-12-18T03:00:10;19.23;;;12.90;;
47659;SDS011;33403;43.608;1.458;2022-12-18T03:05:15;18.20;;;12.00;;
47659;SDS011;33403;43.608;1.458;2022-12-18T03:07:44;19.73;;;13.23;;
47659;SDS011;33403;43.608;1.458;2022-12-18T03:10:14;22.30;;;12.87;;
47659;SDS011;33403;43.608;1.458;2022-12-18T03:12:43;19.83;;;12.50;;
47659;SDS011;33403;43.608;1.458;2022-12-18T03:15:16;19.50;;;12.23;;
47659;SDS011;33403;43.608;1.458;2022-12-18T03:17:44;19.03;;;12.23;;
47659;SDS011;33403;43.608;1.458;2022-12-18T03:20:13;18.70;;;12.53;;
47659;SDS011;33403;43.608;1.458;2022-12-18T03:22:40;17.00;;;11.87;;
47659;SDS011;33403;43.608;1.458;2022-12-18T03:25:08;19.83;;;12.20;;
47659;SDS011;33403;43.608;1.458;2022-12-18T03:27:36;18.43;;;11.80;;
47659;SDS011;33403;43.608;1.458;2022-12-18T03:30:07;17.80;;;11.70;;
47659;SDS011;33403;43.608;1.458;2022-12-18T03:35:21;17.97;;;11.87;;
47659;SDS011;33403;43.608;1.458;2022-12-18T03:37:48;16.57;;;11.73;;
47659;SDS011;33403;43.608;1.458;2022-12-18T03:40:14;16.80;;;11.23;;
47659;SDS011;33403;43.608;1.458;2022-12-18T03:50:12;15.67;;;10.80;;
47659;SDS011;33403;43.608;1.458;2022-12-18T03:53:00;16.30;;;10.97;;
47659;SDS011;33403;43.608;1.458;2022-12-18T03:55:29;17.03;;;11.63;;
47659;SDS011;33403;43.608;1.458;2022-12-18T03:57:58;17.40;;;11.20;;
47659;SDS011;33403;43.608;1.458;2022-12-18T04:00:25;19.17;;;11.33;;
47659;SDS011;33403;43.608;1.458;2022-12-18T04:02:52;16.23;;;10.80;;
47659;SDS011;33403;43.608;1.458;2022-12-18T04:05:19;17.53;;;11.27;;
47659;SDS011;33403;43.608;1.458;2022-12-18T04:07:45;17.50;;;11.17;;
47659;SDS011;33403;43.608;1.458;2022-12-18T04:10:12;15.20;;;10.80;;
47659;SDS011;33403;43.608;1.458;2022-12-18T04:12:39;15.97;;;10.73;;
47659;SDS011;33403;43.608;1.458;2022-12-18T04:15:05;15.00;;;10.53;;
47659;SDS011;33403;43.608;1.458;2022-12-18T04:17:32;16.03;;;10.93;;
47659;SDS011;33403;43.608;1.458;2022-12-18T04:19:58;15.10;;;10.90;;
47659;SDS011;33403;43.608;1.458;2022-12-18T04:22:24;16.23;;;10.63;;
47659;SDS011;33403;43.608;1.458;2022-12-18T04:24:50;14.07;;;10.30;;
47659;SDS011;33403;43.608;1.458;2022-12-18T04:27:16;15.63;;;10.97;;
47659;SDS011;33403;43.608;1.458;2022-12-18T04:29:42;15.47;;;10.63;;
47659;SDS011;33403;43.608;1.458;2022-12-18T04:32:08;17.37;;;11.20;;
47659;SDS011;33403;43.608;1.458;2022-12-18T04:34:34;15.77;;;11.10;;
47659;SDS011;33403;43.608;1.458;2022-12-18T04:37:00;16.90;;;11.07;;
47659;SDS011;33403;43.608;1.458;2022-12-18T04:39:26;17.23;;;11.43;;
47659;SDS011;33403;43.608;1.458;2022-12-18T04:41:52;15.70;;;10.80;;
47659;SDS011;33403;43.608;1.458;2022-12-18T04:44:18;15.97;;;11.20;;
47659;SDS011;33403;43.608;1.458;2022-12-18T04:46:44;14.83;;;10.80;;
47659;SDS011;33403;43.608;1.458;2022-12-18T04:49:10;15.73;;;10.93;;
47659;SDS011;33403;43.608;1.458;2022-12-18T04:51:36;16.50;;;10.80;;
47659;SDS011;33403;43.608;1.458;2022-12-18T04:54:03;15.63;;;11.10;;
47659;SDS011;33403;43.608;1.458;2022-12-18T04:56:30;15.63;;;10.70;;
47659;SDS011;33403;43.608;1.458;2022-12-18T04:58:56;16.63;;;11.80;;
47659;SDS011;33403;43.608;1.458;2022-12-18T05:01:22;17.40;;;11.50;;
47659;SDS011;33403;43.608;1.458;2022-12-18T05:03:48;15.50;;;10.43;;
47659;SDS011;33403;43.608;1.458;2022-12-18T05:06:14;17.43;;;11.03;;
47659;SDS011;33403;43.608;1.458;2022-12-18T05:08:40;15.40;;;10.57;;
47659;SDS011;33403;43.608;1.458;2022-12-18T05:11:13;14.53;;;10.43;;
47659;SDS011;33403;43.608;1.458;2022-12-18T05:13:43;14.27;;;10.13;;
47659;SDS011;33403;43.608;1.458;2022-12-18T05:16:09;14.23;;;10.40;;
47659;SDS011;33403;43.608;1.458;2022-12-18T05:18:36;19.07;;;10.53;;
47659;SDS011;33403;43.608;1.458;2022-12-18T05:21:02;16.10;;;10.73;;
47659;SDS011;33403;43.608;1.458;2022-12-18T05:23:28;15.87;;;10.87;;
47659;SDS011;33403;43.608;1.458;2022-12-18T05:25:55;15.63;;;10.63;;
47659;SDS011;33403;43.608;1.458;2022-12-18T05:28:22;16.60;;;11.00;;
47659;SDS011;33403;43.608;1.458;2022-12-18T05:30:49;15.23;;;10.67;;
47659;SDS011;33403;43.608;1.458;2022-12-18T05:33:16;14.77;;;10.53;;
47659;SDS011;33403;43.608;1.458;2022-12-18T05:35:42;16.53;;;10.73;;
47659;SDS011;33403;43.608;1.458;2022-12-18T05:38:08;13.40;;;10.00;;
47659;SDS011;33403;43.608;1.458;2022-12-18T05:40:34;14.20;;;10.20;;
47659;SDS011;33403;43.608;1.458;2022-12-18T05:43:01;16.40;;;10.87;;
47659;SDS011;33403;43.608;1.458;2022-12-18T05:45:27;17.47;;;11.50;;
47659;SDS011;33403;43.608;1.458;2022-12-18T05:47:53;17.27;;;11.33;;
47659;SDS011;33403;43.608;1.458;2022-12-18T05:50:19;18.07;;;12.10;;
47659;SDS011;33403;43.608;1.458;2022-12-18T05:52:45;22.00;;;13.50;;
47659;SDS011;33403;43.608;1.458;2022-12-18T05:55:11;19.30;;;13.27;;
47659;SDS011;33403;43.608;1.458;2022-12-18T05:57:37;18.93;;;12.40;;
47659;SDS011;33403;43.608;1.458;2022-12-18T06:00:03;20.33;;;12.97;;
47659;SDS011;33403;43.608;1.458;2022-12-18T06:02:29;18.70;;;12.93;;
47659;SDS011;33403;43.608;1.458;2022-12-18T06:04:55;19.83;;;12.87;;
47659;SDS011;33403;43.608;1.458;2022-12-18T06:07:21;17.03;;;11.90;;
47659;SDS011;33403;43.608;1.458;2022-12-18T06:09:47;17.50;;;11.60;;
47659;SDS011;33403;43.608;1.458;2022-12-18T06:12:13;17.27;;;11.97;;
47659;SDS011;33403;43.608;1.458;2022-12-18T06:14:39;16.40;;;11.40;;
47659;SDS011;33403;43.608;1.458;2022-12-18T06:17:05;16.90;;;11.43;;
47659;SDS011;33403;43.608;1.458;2022-12-18T06:19:31;16.27;;;11.37;;
47659;SDS011;33403;43.608;1.458;2022-12-18T06:21:57;16.87;;;11.33;;
47659;SDS011;33403;43.608;1.458;2022-12-18T06:24:24;16.03;;;10.97;;
47659;SDS011;33403;43.608;1.458;2022-12-18T06:26:50;16.70;;;11.57;;
47659;SDS011;33403;43.608;1.458;2022-12-18T06:29:16;17.03;;;11.80;;
47659;SDS011;33403;43.608;1.458;2022-12-18T06:31:42;17.77;;;11.50;;
47659;SDS011;33403;43.608;1.458;2022-12-18T06:34:08;17.73;;;11.57;;
47659;SDS011;33403;43.608;1.458;2022-12-18T06:36:34;16.53;;;11.50;;
47659;SDS011;33403;43.608;1.458;2022-12-18T06:39:00;15.97;;;11.17;;
47659;SDS011;33403;43.608;1.458;2022-12-18T06:41:26;16.40;;;11.67;;
47659;SDS011;33403;43.608;1.458;2022-12-18T06:43:52;17.27;;;11.60;;
47659;SDS011;33403;43.608;1.458;2022-12-18T06:46:18;16.03;;;10.90;;
47659;SDS011;33403;43.608;1.458;2022-12-18T06:48:48;15.83;;;10.83;;
47659;SDS011;33403;43.608;1.458;2022-12-18T06:51:21;18.00;;;12.40;;
47659;SDS011;33403;43.608;1.458;2022-12-18T06:53:48;18.03;;;12.73;;
47659;SDS011;33403;43.608;1.458;2022-12-18T06:56:14;18.90;;;13.47;;
47659;SDS011;33403;43.608;1.458;2022-12-18T06:58:40;17.77;;;12.73;;
47659;SDS011;33403;43.608;1.458;2022-12-18T07:01:08;17.43;;;11.77;;
47659;SDS011;33403;43.608;1.458;2022-12-18T07:03:34;14.47;;;10.67;;
47659;SDS011;33403;43.608;1.458;2022-12-18T07:06:00;16.27;;;11.30;;
47659;SDS011;33403;43.608;1.458;2022-12-18T07:08:27;19.40;;;12.87;;
47659;SDS011;33403;43.608;1.458;2022-12-18T07:10:54;18.07;;;13.10;;
47659;SDS011;33403;43.608;1.458;2022-12-18T07:13:20;18.83;;;12.70;;
47659;SDS011;33403;43.608;1.458;2022-12-18T07:15:46;17.30;;;12.60;;
47659;SDS011;33403;43.608;1.458;2022-12-18T07:18:12;17.20;;;11.90;;
47659;SDS011;33403;43.608;1.458;2022-12-18T07:20:38;16.67;;;12.07;;
47659;SDS011;33403;43.608;1.458;2022-12-18T07:23:05;16.40;;;11.57;;
47659;SDS011;33403;43.608;1.458;2022-12-18T07:25:37;19.13;;;13.10;;
47659;SDS011;33403;43.608;1.458;2022-12-18T07:28:03;19.67;;;13.53;;
47659;SDS011;33403;43.608;1.458;2022-12-18T07:30:29;24.53;;;15.53;;
47659;SDS011;33403;43.608;1.458;2022-12-18T07:32:55;25.07;;;16.30;;
47659;SDS011;33403;43.608;1.458;2022-12-18T07:35:22;28.43;;;16.57;;
47659;SDS011;33403;43.608;1.458;2022-12-18T07:37:48;26.47;;;16.80;;
47659;SDS011;33403;43.608;1.458;2022-12-18T07:40:14;25.20;;;16.17;;
47659;SDS011;33403;43.608;1.458;2022-12-18T07:42:40;27.93;;;16.43;;
47659;SDS011;33403;43.608;1.458;2022-12-18T07:45:06;23.67;;;15.53;;
47659;SDS011;33403;43.608;1.458;2022-12-18T07:47:34;24.57;;;15.83;;
47659;SDS011;33403;43.608;1.458;2022-12-18T07:50:01;24.10;;;15.10;;
47659;SDS011;33403;43.608;1.458;2022-12-18T07:52:27;24.03;;;16.00;;
47659;SDS011;33403;43.608;1.458;2022-12-18T07:54:53;24.53;;;15.77;;
47659;SDS011;33403;43.608;1.458;2022-12-18T07:57:19;23.33;;;15.00;;
47659;SDS011;33403;43.608;1.458;2022-12-18T07:59:45;22.63;;;15.07;;
47659;SDS011;33403;43.608;1.458;2022-12-18T08:02:11;23.60;;;15.17;;
47659;SDS011;33403;43.608;1.458;2022-12-18T08:04:37;23.83;;;16.70;;
47659;SDS011;33403;43.608;1.458;2022-12-18T08:07:03;26.33;;;17.47;;
47659;SDS011;33403;43.608;1.458;2022-12-18T08:09:29;22.80;;;15.57;;
47659;SDS011;33403;43.608;1.458;2022-12-18T08:11:55;23.27;;;15.50;;
47659;SDS011;33403;43.608;1.458;2022-12-18T08:14:21;21.93;;;15.07;;
47659;SDS011;33403;43.608;1.458;2022-12-18T08:16:47;20.50;;;14.13;;
47659;SDS011;33403;43.608;1.458;2022-12-18T08:19:13;21.67;;;14.53;;
47659;SDS011;33403;43.608;1.458;2022-12-18T08:21:39;22.77;;;14.93;;
47659;SDS011;33403;43.608;1.458;2022-12-18T08:24:06;25.80;;;15.70;;
47659;SDS011;33403;43.608;1.458;2022-12-18T08:26:32;27.93;;;18.33;;
47659;SDS011;33403;43.608;1.458;2022-12-18T08:28:58;29.17;;;18.73;;
47659;SDS011;33403;43.608;1.458;2022-12-18T08:31:25;32.27;;;19.43;;
47659;SDS011;33403;43.608;1.458;2022-12-18T08:33:51;29.43;;;18.17;;
47659;SDS011;33403;43.608;1.458;2022-12-18T08:36:18;34.10;;;20.17;;
47659;SDS011;33403;43.608;1.458;2022-12-18T08:38:45;30.77;;;18.50;;
47659;SDS011;33403;43.608;1.458;2022-12-18T08:41:12;31.67;;;18.43;;
47659;SDS011;33403;43.608;1.458;2022-12-18T08:43:38;26.43;;;15.93;;
47659;SDS011;33403;43.608;1.458;2022-12-18T08:46:24;19.27;;;12.10;;
47659;SDS011;33403;43.608;1.458;2022-12-18T08:48:51;16.17;;;9.90;;
47659;SDS011;33403;43.608;1.458;2022-12-18T08:51:17;14.63;;;8.97;;
47659;SDS011;33403;43.608;1.458;2022-12-18T08:53:43;15.37;;;9.43;;
47659;SDS011;33403;43.608;1.458;2022-12-18T08:56:10;13.77;;;9.27;;
47659;SDS011;33403;43.608;1.458;2022-12-18T08:58:36;14.87;;;9.43;;
47659;SDS011;33403;43.608;1.458;2022-12-18T09:01:03;15.23;;;9.60;;
47659;SDS011;33403;43.608;1.458;2022-12-18T09:03:30;15.20;;;9.10;;
47659;SDS011;33403;43.608;1.458;2022-12-18T09:05:56;17.10;;;9.67;;
47659;SDS011;33403;43.608;1.458;2022-12-18T09:08:22;13.43;;;8.63;;
47659;SDS011;33403;43.608;1.458;2022-12-18T09:10:48;14.67;;;8.87;;
47659;SDS011;33403;43.608;1.458;2022-12-18T09:13:15;13.27;;;8.90;;
47659;SDS011;33403;43.608;1.458;2022-12-18T09:15:45;14.07;;;9.00;;
47659;SDS011;33403;43.608;1.458;2022-12-18T09:18:12;16.30;;;9.20;;
47659;SDS011;33403;43.608;1.458;2022-12-18T09:20:39;14.67;;;8.30;;
47659;SDS011;33403;43.608;1.458;2022-12-18T09:23:05;13.93;;;8.23;;
47659;SDS011;33403;43.608;1.458;2022-12-18T09:25:31;13.80;;;8.87;;
47659;SDS011;33403;43.608;1.458;2022-12-18T09:28:06;12.83;;;8.17;;
47659;SDS011;33403;43.608;1.458;2022-12-18T09:30:32;14.67;;;8.17;;
47659;SDS011;33403;43.608;1.458;2022-12-18T09:32:59;12.73;;;8.23;;
47659;SDS011;33403;43.608;1.458;2022-12-18T09:35:25;12.07;;;8.27;;
47659;SDS011;33403;43.608;1.458;2022-12-18T09:37:53;14.47;;;8.80;;
47659;SDS011;33403;43.608;1.458;2022-12-18T09:40:20;12.63;;;8.13;;
47659;SDS011;33403;43.608;1.458;2022-12-18T09:42:48;13.73;;;8.57;;
47659;SDS011;33403;43.608;1.458;2022-12-18T09:45:15;13.37;;;7.70;;
47659;SDS011;33403;43.608;1.458;2022-12-18T09:47:42;11.23;;;7.50;;
47659;SDS011;33403;43.608;1.458;2022-12-18T09:52:48;12.57;;;7.63;;
47659;SDS011;33403;43.608;1.458;2022-12-18T09:57:51;11.37;;;7.63;;
47659;SDS011;33403;43.608;1.458;2022-12-18T10:00:19;10.50;;;6.80;;
47659;SDS011;33403;43.608;1.458;2022-12-18T10:02:45;11.50;;;7.17;;
47659;SDS011;33403;43.608;1.458;2022-12-18T10:05:13;11.33;;;7.13;;
47659;SDS011;33403;43.608;1.458;2022-12-18T10:07:57;8.37;;;6.23;;
47659;SDS011;33403;43.608;1.458;2022-12-18T10:11:12;11.13;;;6.40;;
47659;SDS011;33403;43.608;1.458;2022-12-18T10:13:15;9.80;;;6.73;;
47659;SDS011;33403;43.608;1.458;2022-12-18T10:21:21;9.80;;;6.80;;
47659;SDS011;33403;43.608;1.458;2022-12-18T10:26:34;10.70;;;6.40;;
47659;SDS011;33403;43.608;1.458;2022-12-18T10:29:00;8.93;;;6.17;;
47659;SDS011;33403;43.608;1.458;2022-12-18T10:31:27;7.90;;;5.90;;
47659;SDS011;33403;43.608;1.458;2022-12-18T10:33:53;7.90;;;5.07;;
47659;SDS011;33403;43.608;1.458;2022-12-18T10:36:20;8.50;;;5.50;;
47659;SDS011;33403;43.608;1.458;2022-12-18T10:38:46;7.70;;;5.87;;
47659;SDS011;33403;43.608;1.458;2022-12-18T10:44:10;7.97;;;5.30;;
47659;SDS011;33403;43.608;1.458;2022-12-18T10:46:36;8.00;;;5.30;;
47659;SDS011;33403;43.608;1.458;2022-12-18T10:49:02;6.60;;;5.03;;
47659;SDS011;33403;43.608;1.458;2022-12-18T10:51:30;8.63;;;5.40;;
47659;SDS011;33403;43.608;1.458;2022-12-18T10:54:18;7.97;;;5.10;;
47659;SDS011;33403;43.608;1.458;2022-12-18T10:56:45;8.30;;;5.40;;
47659;SDS011;33403;43.608;1.458;2022-12-18T10:59:12;6.87;;;5.23;;
47659;SDS011;33403;43.608;1.458;2022-12-18T11:04:21;9.27;;;5.00;;
47659;SDS011;33403;43.608;1.458;2022-12-18T11:06:52;8.50;;;5.40;;
47659;SDS011;33403;43.608;1.458;2022-12-18T11:09:19;8.10;;;5.30;;
47659;SDS011;33403;43.608;1.458;2022-12-18T11:11:52;8.23;;;5.20;;
47659;SDS011;33403;43.608;1.458;2022-12-18T11:14:26;8.20;;;5.00;;
47659;SDS011;33403;43.608;1.458;2022-12-18T11:16:53;8.03;;;5.17;;
47659;SDS011;33403;43.608;1.458;2022-12-18T11:21:47;7.77;;;5.10;;
47659;SDS011;33403;43.608;1.458;2022-12-18T11:24:25;6.77;;;5.13;;
47659;SDS011;33403;43.608;1.458;2022-12-18T11:26:53;7.00;;;5.17;;
47659;SDS011;33403;43.608;1.458;2022-12-18T11:29:23;6.80;;;4.77;;
47659;SDS011;33403;43.608;1.458;2022-12-18T11:31:49;8.57;;;5.37;;
47659;SDS011;33403;43.608;1.458;2022-12-18T11:34:28;8.20;;;5.40;;
47659;SDS011;33403;43.608;1.458;2022-12-18T11:36:55;6.43;;;4.60;;
47659;SDS011;33403;43.608;1.458;2022-12-18T11:42:00;7.30;;;4.73;;
47659;SDS011;33403;43.608;1.458;2022-12-18T11:44:57;5.80;;;4.50;;
47659;SDS011;33403;43.608;1.458;2022-12-18T11:50:20;7.37;;;4.50;;
47659;SDS011;33403;43.608;1.458;2022-12-18T11:52:47;8.83;;;5.10;;
47659;SDS011;33403;43.608;1.458;2022-12-18T11:55:14;8.52;;;5.05;;
47659;SDS011;33403;43.608;1.458;2022-12-18T12:23:54;6.95;;;5.30;;
47659;SDS011;33403;43.608;1.458;2022-12-18T12:26:29;8.07;;;5.47;;
47659;SDS011;33403;43.608;1.458;2022-12-18T12:29:40;8.07;;;5.40;;
47659;SDS011;33403;43.608;1.458;2022-12-18T12:37:09;7.07;;;5.28;;
47659;SDS011;33403;43.608;1.458;2022-12-18T12:39:38;8.48;;;5.47;;
47659;SDS011;33403;43.608;1.458;2022-12-18T12:42:05;7.78;;;5.38;;
47659;SDS011;33403;43.608;1.458;2022-12-18T12:44:56;8.83;;;6.20;;
47659;SDS011;33403;43.608;1.458;2022-12-18T12:47:28;8.68;;;5.30;;
47659;SDS011;33403;43.608;1.458;2022-12-18T12:49:56;9.13;;;5.63;;
47659;SDS011;33403;43.608;1.458;2022-12-18T12:52:34;7.15;;;5.68;;
47659;SDS011;33403;43.608;1.458;2022-12-18T12:55:02;6.55;;;5.43;;
47659;SDS011;33403;43.608;1.458;2022-12-18T12:57:30;7.27;;;5.13;;
47659;SDS011;33403;43.608;1.458;2022-12-18T13:00:20;7.78;;;5.38;;
47659;SDS011;33403;43.608;1.458;2022-12-18T13:05:18;8.68;;;5.97;;
47659;SDS011;33403;43.608;1.458;2022-12-18T13:07:47;8.18;;;5.60;;
47659;SDS011;33403;43.608;1.458;2022-12-18T13:12:54;7.55;;;5.60;;
47659;SDS011;33403;43.608;1.458;2022-12-18T13:15:21;7.80;;;5.75;;
47659;SDS011;33403;43.608;1.458;2022-12-18T13:17:48;8.10;;;6.13;;
47659;SDS011;33403;43.608;1.458;2022-12-18T13:20:14;6.82;;;5.53;;
47659;SDS011;33403;43.608;1.458;2022-12-18T13:22:44;9.90;;;6.00;;
47659;SDS011;33403;43.608;1.458;2022-12-18T13:45:44;7.25;;;5.68;;
47659;SDS011;33403;43.608;1.458;2022-12-18T13:48:21;8.07;;;5.60;;
47659;SDS011;33403;43.608;1.458;2022-12-18T13:50:57;8.70;;;6.00;;
47659;SDS011;33403;43.608;1.458;2022-12-18T13:53:28;10.25;;;5.72;;
47659;SDS011;33403;43.608;1.458;2022-12-18T13:55:55;7.50;;;5.50;;
47659;SDS011;33403;43.608;1.458;2022-12-18T13:58:21;7.90;;;5.90;;
47659;SDS011;33403;43.608;1.458;2022-12-18T14:00:47;8.27;;;5.63;;
47659;SDS011;33403;43.608;1.458;2022-12-18T14:03:31;7.40;;;5.50;;
47659;SDS011;33403;43.608;1.458;2022-12-18T14:06:02;6.85;;;5.38;;
47659;SDS011;33403;43.608;1.458;2022-12-18T14:08:33;7.50;;;5.75;;
47659;SDS011;33403;43.608;1.458;2022-12-18T14:11:01;8.18;;;5.20;;
47659;SDS011;33403;43.608;1.458;2022-12-18T14:13:29;6.13;;;5.32;;
47659;SDS011;33403;43.608;1.458;2022-12-18T14:15:56;8.45;;;5.53;;
47659;SDS011;33403;43.608;1.458;2022-12-18T14:20:57;7.75;;;5.68;;
47659;SDS011;33403;43.608;1.458;2022-12-18T14:25:53;7.97;;;5.78;;
47659;SDS011;33403;43.608;1.458;2022-12-18T14:28:19;7.45;;;5.30;;
47659;SDS011;33403;43.608;1.458;2022-12-18T14:30:47;8.40;;;6.13;;
47659;SDS011;33403;43.608;1.458;2022-12-18T14:35:40;7.60;;;5.63;;
47659;SDS011;33403;43.608;1.458;2022-12-18T14:40:36;9.50;;;5.70;;
47659;SDS011;33403;43.608;1.458;2022-12-18T14:43:02;8.75;;;5.72;;
47659;SDS011;33403;43.608;1.458;2022-12-18T14:45:32;9.45;;;5.65;;
47659;SDS011;33403;43.608;1.458;2022-12-18T14:47:58;9.15;;;5.90;;
47659;SDS011;33403;43.608;1.458;2022-12-18T14:50:25;10.02;;;5.70;;
47659;SDS011;33403;43.608;1.458;2022-12-18T14:52:51;7.28;;;5.20;;
47659;SDS011;33403;43.608;1.458;2022-12-18T14:55:17;7.68;;;5.30;;
47659;SDS011;33403;43.608;1.458;2022-12-18T14:57:44;8.93;;;5.80;;
47659;SDS011;33403;43.608;1.458;2022-12-18T15:00:17;8.57;;;5.72;;
47659;SDS011;33403;43.608;1.458;2022-12-18T15:02:48;10.40;;;6.15;;
47659;SDS011;33403;43.608;1.458;2022-12-18T15:05:19;8.10;;;5.93;;
47659;SDS011;33403;43.608;1.458;2022-12-18T15:07:47;9.48;;;5.90;;
47659;SDS011;33403;43.608;1.458;2022-12-18T15:10:15;7.95;;;5.38;;
47659;SDS011;33403;43.608;1.458;2022-12-18T15:12:45;7.78;;;5.57;;
47659;SDS011;33403;43.608;1.458;2022-12-18T15:17:57;8.50;;;5.90;;
47659;SDS011;33403;43.608;1.458;2022-12-18T15:20:23;7.28;;;5.60;;
47659;SDS011;33403;43.608;1.458;2022-12-18T15:22:49;8.93;;;5.50;;
47659;SDS011;33403;43.608;1.458;2022-12-18T15:25:31;9.60;;;5.70;;
47659;SDS011;33403;43.608;1.458;2022-12-18T15:27:57;8.02;;;5.80;;
47659;SDS011;33403;43.608;1.458;2022-12-18T15:30:24;9.77;;;5.50;;
47659;SDS011;33403;43.608;1.458;2022-12-18T15:32:50;9.50;;;5.57;;
47659;SDS011;33403;43.608;1.458;2022-12-18T15:35:22;8.10;;;5.68;;
47659;SDS011;33403;43.608;1.458;2022-12-18T15:37:48;7.68;;;5.70;;
47659;SDS011;33403;43.608;1.458;2022-12-18T15:40:19;7.55;;;5.57;;
47659;SDS011;33403;43.608;1.458;2022-12-18T15:42:45;9.30;;;5.55;;
47659;SDS011;33403;43.608;1.458;2022-12-18T15:45:30;7.95;;;5.68;;
47659;SDS011;33403;43.608;1.458;2022-12-18T15:47:56;7.93;;;5.47;;
47659;SDS011;33403;43.608;1.458;2022-12-18T15:50:22;9.52;;;5.72;;
47659;SDS011;33403;43.608;1.458;2022-12-18T15:52:49;8.05;;;6.13;;
47659;SDS011;33403;43.608;1.458;2022-12-18T15:55:17;10.63;;;6.10;;
47659;SDS011;33403;43.608;1.458;2022-12-18T15:58:02;9.20;;;5.93;;
47659;SDS011;33403;43.608;1.458;2022-12-18T16:00:29;10.50;;;5.72;;
47659;SDS011;33403;43.608;1.458;2022-12-18T16:02:55;12.65;;;6.28;;
47659;SDS011;33403;43.608;1.458;2022-12-18T16:05:21;8.98;;;6.50;;
47659;SDS011;33403;43.608;1.458;2022-12-18T16:07:47;8.50;;;5.70;;
47659;SDS011;33403;43.608;1.458;2022-12-18T16:10:13;7.82;;;5.95;;
47659;SDS011;33403;43.608;1.458;2022-12-18T16:12:39;12.00;;;6.38;;
47659;SDS011;33403;43.608;1.458;2022-12-18T16:15:06;10.57;;;6.45;;
47659;SDS011;33403;43.608;1.458;2022-12-18T16:17:32;9.15;;;5.68;;
47659;SDS011;33403;43.608;1.458;2022-12-18T16:19:58;10.85;;;6.18;;
47659;SDS011;33403;43.608;1.458;2022-12-18T16:22:26;9.55;;;5.72;;
47659;SDS011;33403;43.608;1.458;2022-12-18T16:24:53;8.55;;;5.72;;
47659;SDS011;33403;43.608;1.458;2022-12-18T16:27:20;10.45;;;6.05;;
47659;SDS011;33403;43.608;1.458;2022-12-18T16:29:47;8.07;;;5.68;;
47659;SDS011;33403;43.608;1.458;2022-12-18T16:32:15;9.75;;;5.85;;
47659;SDS011;33403;43.608;1.458;2022-12-18T16:34:41;9.57;;;6.00;;
47659;SDS011;33403;43.608;1.458;2022-12-18T16:37:09;8.68;;;6.22;;
47659;SDS011;33403;43.608;1.458;2022-12-18T16:39:36;10.20;;;6.10;;
47659;SDS011;33403;43.608;1.458;2022-12-18T16:42:03;9.93;;;6.53;;
47659;SDS011;33403;43.608;1.458;2022-12-18T16:44:29;9.95;;;6.47;;